createdAt,value
2019-03-20T00:00:13.746Z,-0.60
2019-03-20T00:03:22.792Z,-0.60
2019-03-20T00:06:30.354Z,-0.70
2019-03-20T00:09:37.914Z,-0.70
2019-03-20T00:12:45.427Z,-0.70
2019-03-20T00:15:52.947Z,-0.70
2019-03-20T00:19:00.484Z,-0.70
2019-03-20T00:22:08.136Z,-0.80
2019-03-20T00:25:15.938Z,-0.70
2019-03-20T00:28:25.397Z,-0.70
2019-03-20T00:31:32.940Z,-0.70
2019-03-20T00:34:40.566Z,-0.70
2019-03-20T00:37:48.550Z,-0.70
2019-03-20T00:40:56.117Z,-0.70
2019-03-20T00:44:03.668Z,-0.70
2019-03-20T00:47:11.089Z,-0.70
2019-03-20T00:50:19.626Z,-0.70
2019-03-20T00:53:27.093Z,-0.70
2019-03-20T00:56:34.646Z,-0.70
2019-03-20T00:59:42.066Z,-0.70
2019-03-20T01:02:49.543Z,-0.80
2019-03-20T01:05:56.991Z,-0.80
2019-03-20T01:09:05.184Z,-0.80
2019-03-20T01:12:12.713Z,-0.80
2019-03-20T01:15:20.382Z,-0.70
2019-03-20T01:18:27.855Z,-0.80
2019-03-20T01:21:35.364Z,-0.80
2019-03-20T01:24:42.829Z,-0.80
2019-03-20T01:27:50.356Z,-0.90
2019-03-20T01:30:57.882Z,-0.90
2019-03-20T01:34:05.362Z,-1.00
2019-03-20T01:37:12.954Z,-1.00
2019-03-20T01:40:20.447Z,-1.00
2019-03-20T01:43:27.900Z,-1.00
2019-03-20T01:46:35.954Z,-1.10
2019-03-20T01:49:43.464Z,-1.10
2019-03-20T01:52:51.022Z,-1.20
2019-03-20T01:56:01.596Z,-1.20
2019-03-20T01:59:09.124Z,-1.20
2019-03-20T02:02:16.578Z,-1.30
2019-03-20T02:05:34.712Z,-1.20
2019-03-20T02:08:33.108Z,-1.30
2019-03-20T02:11:40.622Z,-1.30
2019-03-20T02:14:48.088Z,-1.30
2019-03-20T02:17:55.551Z,-1.30
2019-03-20T02:21:03.828Z,-1.30
2019-03-20T02:24:11.334Z,-1.40
2019-03-20T02:27:18.875Z,-1.40
2019-03-20T02:30:26.441Z,-1.40
2019-03-20T02:33:33.896Z,-1.30
2019-03-20T02:36:41.416Z,-1.40
2019-03-20T02:39:48.837Z,-1.40
2019-03-20T02:42:56.812Z,-1.40
2019-03-20T02:46:04.382Z,-1.50
2019-03-20T02:49:11.815Z,-1.50
2019-03-20T02:52:19.270Z,-1.50
2019-03-20T02:55:26.693Z,-1.50
2019-03-20T02:58:34.211Z,-1.50
2019-03-20T03:01:41.793Z,-1.50
2019-03-20T03:04:49.249Z,-1.50
2019-03-20T03:07:56.904Z,-1.50
2019-03-20T03:11:05.236Z,-1.50
2019-03-20T03:14:13.246Z,-1.50
2019-03-20T03:17:20.710Z,-1.60
2019-03-20T03:20:29.014Z,-1.60
2019-03-20T03:23:36.440Z,-1.60
2019-03-20T03:26:44.069Z,-1.70
2019-03-20T03:29:51.509Z,-1.70
2019-03-20T03:32:58.997Z,-1.80
2019-03-20T03:36:20.253Z,-1.80
2019-03-20T03:39:15.758Z,-1.80
2019-03-20T03:42:23.193Z,-1.90
2019-03-20T03:45:30.720Z,-1.90
2019-03-20T03:48:38.182Z,-1.90
2019-03-20T03:51:45.722Z,-2.00
2019-03-20T03:54:53.245Z,-2.00
2019-03-20T03:58:00.706Z,-1.90
2019-03-20T04:01:08.142Z,-1.80
2019-03-20T04:04:15.641Z,-1.70
2019-03-20T04:07:23.819Z,-1.70
2019-03-20T04:10:31.643Z,-1.60
2019-03-20T04:13:39.136Z,-1.60
2019-03-20T04:16:47.040Z,-1.50
2019-03-20T04:19:54.586Z,-1.50
2019-03-20T04:23:02.054Z,-1.50
2019-03-20T04:26:09.606Z,-1.60
2019-03-20T04:29:17.142Z,-1.60
2019-03-20T04:32:24.655Z,-1.60
2019-03-20T04:35:32.184Z,-1.60
2019-03-20T04:38:39.736Z,-1.70
2019-03-20T04:41:47.184Z,-1.70
2019-03-20T04:44:54.747Z,-1.70
2019-03-20T04:48:02.255Z,-1.60
2019-03-20T04:51:09.745Z,-1.60
2019-03-20T04:54:17.307Z,-1.70
2019-03-20T04:57:24.811Z,-1.70
2019-03-20T05:00:32.316Z,-1.80
2019-03-20T05:03:39.811Z,-1.70
2019-03-20T05:06:57.992Z,-1.70
2019-03-20T05:09:56.645Z,-1.70
2019-03-20T05:13:04.194Z,-1.60
2019-03-20T05:16:11.697Z,-1.60
2019-03-20T05:19:19.660Z,-1.50
2019-03-20T05:22:27.216Z,-1.50
2019-03-20T05:25:34.758Z,-1.50
2019-03-20T05:28:42.205Z,-1.40
2019-03-20T05:31:49.657Z,-1.30
2019-03-20T05:34:57.114Z,-1.30
2019-03-20T05:38:04.835Z,-1.10
2019-03-20T05:41:12.453Z,-1.00
2019-03-20T05:44:19.972Z,-0.90
2019-03-20T05:47:27.438Z,-0.80
2019-03-20T05:50:36.135Z,-0.60
2019-03-20T05:53:43.919Z,-0.40
2019-03-20T05:56:52.985Z,-0.20
2019-03-20T06:00:00.571Z,0.20
2019-03-20T06:03:08.051Z,1.20
2019-03-20T06:06:15.836Z,2.30
2019-03-20T06:09:23.410Z,3.40
2019-03-20T06:12:30.955Z,4.30
2019-03-20T06:15:38.529Z,5.30
2019-03-20T06:18:46.093Z,6.20
2019-03-20T06:21:54.538Z,6.90
2019-03-20T06:25:02.194Z,7.60
2019-03-20T06:28:09.838Z,8.20
2019-03-20T06:31:18.869Z,8.80
2019-03-20T06:34:26.521Z,9.40
2019-03-20T06:37:34.015Z,10.10
2019-03-20T06:40:42.445Z,10.20
2019-03-20T06:43:49.870Z,10.40
2019-03-20T06:46:57.327Z,10.60
2019-03-20T06:50:05.136Z,10.50
2019-03-20T06:53:12.760Z,10.50
2019-03-20T06:56:20.304Z,10.80
2019-03-20T07:00:11.931Z,10.60
2019-03-20T07:03:23.699Z,10.40
2019-03-20T07:06:47.677Z,10.20
2019-03-20T07:10:11.627Z,10.20
2019-03-20T07:13:19.183Z,10.70
2019-03-20T07:16:26.665Z,11.00
2019-03-20T07:19:34.143Z,11.40
2019-03-20T07:22:41.781Z,11.60
2019-03-20T07:25:49.219Z,11.20
2019-03-20T07:28:56.625Z,11.20
2019-03-20T07:32:04.305Z,11.10
2019-03-20T07:35:11.848Z,10.90
2019-03-20T07:38:19.342Z,10.70
2019-03-20T07:41:26.833Z,10.90
2019-03-20T07:44:34.285Z,11.30
2019-03-20T07:47:41.726Z,12.00
2019-03-20T07:50:49.288Z,12.60
2019-03-20T07:53:56.772Z,13.30
2019-03-20T07:57:04.379Z,14.10
2019-03-20T08:00:13.711Z,14.50
2019-03-20T08:03:21.287Z,15.00
2019-03-20T08:06:28.719Z,15.50
2019-03-20T08:09:36.348Z,15.70
2019-03-20T08:12:43.941Z,15.30
2019-03-20T08:15:51.410Z,15.50
2019-03-20T08:18:58.959Z,14.90
2019-03-20T08:22:06.425Z,15.20
2019-03-20T08:25:14.345Z,15.80
2019-03-20T08:28:22.052Z,15.00
2019-03-20T08:31:29.639Z,14.70
2019-03-20T08:34:37.139Z,15.30
2019-03-20T08:37:44.731Z,15.70
2019-03-20T08:40:52.197Z,15.90
2019-03-20T08:43:59.647Z,15.60
2019-03-20T08:47:07.136Z,16.00
2019-03-20T08:50:18.051Z,15.80
2019-03-20T08:53:25.597Z,15.90
2019-03-20T08:56:33.193Z,16.60
2019-03-20T08:59:40.769Z,16.80
2019-03-20T09:02:48.286Z,17.20
2019-03-20T09:05:55.800Z,17.20
2019-03-20T09:09:03.369Z,17.50
2019-03-20T09:12:11.107Z,17.10
2019-03-20T09:15:18.857Z,17.00
2019-03-20T09:18:26.746Z,17.20
2019-03-20T09:21:35.293Z,16.80
2019-03-20T09:24:42.802Z,16.60
2019-03-20T09:27:50.409Z,16.50
2019-03-20T09:30:57.964Z,16.50
2019-03-20T09:34:05.606Z,16.70
2019-03-20T09:37:13.267Z,16.50
2019-03-20T09:40:23.486Z,16.80
2019-03-20T09:43:30.429Z,17.00
2019-03-20T09:46:38.020Z,16.40
2019-03-20T09:49:45.613Z,16.40
2019-03-20T09:52:53.159Z,16.40
2019-03-20T09:56:00.635Z,16.00
2019-03-20T09:59:08.143Z,15.50
2019-03-20T10:02:16.117Z,14.50
2019-03-20T10:05:23.881Z,13.30
2019-03-20T10:08:31.453Z,12.40
2019-03-20T10:11:39.121Z,12.30
2019-03-20T10:14:46.686Z,13.00
2019-03-20T10:17:54.143Z,13.50
2019-03-20T10:21:01.601Z,14.10
2019-03-20T10:24:09.685Z,14.60
2019-03-20T10:27:17.139Z,15.20
2019-03-20T10:30:24.839Z,15.00
2019-03-20T10:33:32.369Z,14.60
2019-03-20T10:36:39.856Z,14.00
2019-03-20T10:39:47.381Z,14.40
2019-03-20T10:42:55.196Z,14.60
2019-03-20T10:46:02.926Z,14.40
2019-03-20T10:49:10.562Z,14.80
2019-03-20T10:52:18.184Z,15.20
2019-03-20T10:55:25.771Z,15.20
2019-03-20T10:58:33.603Z,15.10
2019-03-20T11:01:42.818Z,14.80
2019-03-20T11:04:50.473Z,14.30
2019-03-20T11:07:58.052Z,13.40
2019-03-20T11:11:05.766Z,12.70
2019-03-20T11:14:13.253Z,11.90
2019-03-20T11:17:20.809Z,11.40
2019-03-20T11:20:28.404Z,11.10
2019-03-20T11:23:35.895Z,11.30
2019-03-20T11:26:43.357Z,12.00
2019-03-20T11:29:50.870Z,11.90
2019-03-20T11:32:58.496Z,11.50
2019-03-20T11:36:06.050Z,12.00
2019-03-20T11:39:13.625Z,11.80
2019-03-20T11:42:21.262Z,11.40
2019-03-20T11:45:28.937Z,11.00
2019-03-20T11:48:36.554Z,10.50
2019-03-20T11:51:44.052Z,10.00
2019-03-20T11:54:51.569Z,9.80
2019-03-20T11:57:59.448Z,9.90
2019-03-20T12:01:07.088Z,9.90
2019-03-20T12:04:14.919Z,9.90
2019-03-20T12:07:22.574Z,10.20
2019-03-20T12:10:30.179Z,10.20
2019-03-20T12:13:37.684Z,10.10
2019-03-20T12:16:45.388Z,10.00
2019-03-20T12:19:52.980Z,9.60
2019-03-20T12:23:00.522Z,9.50
2019-03-20T12:26:08.098Z,9.40
2019-03-20T12:29:15.887Z,9.90
2019-03-20T12:32:23.631Z,10.30
2019-03-20T12:35:31.975Z,10.50
2019-03-20T12:38:39.505Z,10.70
2019-03-20T12:41:46.986Z,11.10
2019-03-20T12:44:54.544Z,11.40
2019-03-20T12:48:02.153Z,11.50
2019-03-20T12:51:09.723Z,11.00
2019-03-20T12:54:17.257Z,10.40
2019-03-20T12:57:24.804Z,10.20
2019-03-20T13:00:33.924Z,9.80
2019-03-20T13:03:41.490Z,9.70
2019-03-20T13:06:48.970Z,9.60
2019-03-20T13:10:03.158Z,9.30
2019-03-20T13:13:05.824Z,9.10
2019-03-20T13:16:13.627Z,9.10
2019-03-20T13:19:22.269Z,8.90
2019-03-20T13:22:30.138Z,8.90
2019-03-20T13:25:37.912Z,8.80
2019-03-20T13:28:45.653Z,8.90
2019-03-20T13:31:53.068Z,9.10
2019-03-20T13:35:00.685Z,9.20
2019-03-20T13:38:08.376Z,9.20
2019-03-20T13:41:16.140Z,9.30
2019-03-20T13:44:23.606Z,9.30
2019-03-20T13:47:31.316Z,9.30
2019-03-20T13:50:40.463Z,9.40
2019-03-20T13:53:47.967Z,9.30
2019-03-20T13:56:55.600Z,9.30
2019-03-20T14:00:03.098Z,9.30
2019-03-20T14:03:12.135Z,9.40
2019-03-20T14:06:19.684Z,9.20
2019-03-20T14:09:27.654Z,9.20
2019-03-20T14:12:35.424Z,9.30
2019-03-20T14:15:44.972Z,9.40
2019-03-20T14:18:52.449Z,9.60
2019-03-20T14:21:59.941Z,9.60
2019-03-20T14:25:07.937Z,9.50
2019-03-20T14:28:15.535Z,9.50
2019-03-20T14:31:23.167Z,9.50
2019-03-20T14:34:30.627Z,9.40
2019-03-20T14:37:38.131Z,9.50
2019-03-20T14:40:45.966Z,9.60
2019-03-20T14:43:53.480Z,9.70
2019-03-20T14:47:01.062Z,9.80
2019-03-20T14:50:10.417Z,9.80
2019-03-20T14:53:17.992Z,9.90
2019-03-20T14:56:25.464Z,9.80
2019-03-20T14:59:33.058Z,9.80
2019-03-20T15:02:40.687Z,9.60
2019-03-20T15:05:48.172Z,9.50
2019-03-20T15:08:56.788Z,9.50
2019-03-20T15:12:04.387Z,9.40
2019-03-20T15:15:16.399Z,9.40
2019-03-20T15:18:24.011Z,9.30
2019-03-20T15:21:31.623Z,9.20
2019-03-20T15:24:39.350Z,9.10
2019-03-20T15:27:47.047Z,9.00
2019-03-20T15:30:54.568Z,8.90
2019-03-20T15:34:03.188Z,8.80
2019-03-20T15:37:10.601Z,8.70
2019-03-20T15:40:18.282Z,8.60
2019-03-20T15:43:25.842Z,8.50
2019-03-20T15:46:34.474Z,8.40
2019-03-20T15:49:41.914Z,8.30
2019-03-20T15:52:49.604Z,8.20
2019-03-20T15:55:57.534Z,8.10
2019-03-20T15:59:05.129Z,8.10
2019-03-20T16:02:12.572Z,7.90
2019-03-20T16:05:20.133Z,7.80
2019-03-20T16:08:27.883Z,7.70
2019-03-20T16:11:35.591Z,7.60
2019-03-20T16:14:45.458Z,7.60
2019-03-20T16:17:53.181Z,7.50
2019-03-20T16:21:00.748Z,7.40
2019-03-20T16:24:08.295Z,7.30
2019-03-20T16:27:15.877Z,7.20
2019-03-20T16:30:23.826Z,7.20
2019-03-20T16:33:31.363Z,7.10
2019-03-20T16:36:38.948Z,7.00
2019-03-20T16:39:46.540Z,6.90
2019-03-20T16:42:54.043Z,6.80
2019-03-20T16:46:01.768Z,6.70
2019-03-20T16:49:09.288Z,6.60
2019-03-20T16:52:16.862Z,6.40
2019-03-20T16:55:24.571Z,6.40
2019-03-20T16:58:32.268Z,6.20
2019-03-20T17:01:40.956Z,6.10
2019-03-20T17:04:48.589Z,6.00
2019-03-20T17:07:56.262Z,5.90
2019-03-20T17:11:03.792Z,5.80
2019-03-20T17:14:11.255Z,5.70
2019-03-20T17:17:18.823Z,5.60
2019-03-20T17:20:26.328Z,5.50
2019-03-20T17:23:33.902Z,5.50
2019-03-20T17:26:42.590Z,5.30
2019-03-20T17:29:50.074Z,5.20
2019-03-20T17:32:58.616Z,5.10
2019-03-20T17:36:06.288Z,5.10
2019-03-20T17:39:13.896Z,5.00
2019-03-20T17:42:21.326Z,4.90
2019-03-20T17:45:29.374Z,4.90
2019-03-20T17:48:38.105Z,4.80
2019-03-20T17:51:45.639Z,4.70
2019-03-20T17:54:53.286Z,4.70
2019-03-20T17:58:00.860Z,4.60
2019-03-20T18:01:08.367Z,4.60
2019-03-20T18:04:15.976Z,4.50
2019-03-20T18:07:23.488Z,4.40
2019-03-20T18:10:33.107Z,4.40
2019-03-20T18:13:40.342Z,4.40
2019-03-20T18:16:47.919Z,4.30
2019-03-20T18:19:56.440Z,4.30
2019-03-20T18:23:05.168Z,4.20
2019-03-20T18:26:13.955Z,4.10
2019-03-20T18:29:21.521Z,4.10
2019-03-20T18:32:29.307Z,4.10
2019-03-20T18:35:37.905Z,4.10
2019-03-20T18:38:45.850Z,4.10
2019-03-20T18:41:57.737Z,4.10
2019-03-20T18:45:02.747Z,4.10
2019-03-20T18:48:10.400Z,4.00
2019-03-20T18:51:18.016Z,4.10
2019-03-20T18:54:25.568Z,4.00
2019-03-20T18:57:33.705Z,4.00
2019-03-20T19:00:41.156Z,4.00
2019-03-20T19:03:48.758Z,3.90
2019-03-20T19:06:56.387Z,3.90
2019-03-20T19:10:03.934Z,3.90
2019-03-20T19:13:11.573Z,3.90
2019-03-20T19:16:19.413Z,3.90
2019-03-20T19:19:27.622Z,3.90
2019-03-20T19:22:35.204Z,3.80
2019-03-20T19:25:42.918Z,3.80
2019-03-20T19:28:50.394Z,3.80
2019-03-20T19:31:57.993Z,3.70
2019-03-20T19:35:06.646Z,3.60
2019-03-20T19:38:14.414Z,3.50
2019-03-20T19:41:21.938Z,3.40
2019-03-20T19:44:29.537Z,3.30
2019-03-20T19:47:37.085Z,3.20
2019-03-20T19:50:44.669Z,3.30
2019-03-20T19:53:52.522Z,3.20
2019-03-20T19:57:00.070Z,3.30
2019-03-20T20:00:11.063Z,3.30
2019-03-20T20:03:19.820Z,3.30
2019-03-20T20:06:27.385Z,3.30
2019-03-20T20:09:34.899Z,3.20
2019-03-20T20:12:42.555Z,3.20
2019-03-20T20:15:50.200Z,3.10
2019-03-20T20:18:57.753Z,3.00
2019-03-20T20:22:05.303Z,3.00
2019-03-20T20:25:12.809Z,3.00
2019-03-20T20:28:20.431Z,3.00
2019-03-20T20:31:27.970Z,3.10
2019-03-20T20:34:36.749Z,3.10
2019-03-20T20:37:44.500Z,3.10
2019-03-20T20:40:52.026Z,3.20
2019-03-20T20:43:59.624Z,3.20
2019-03-20T20:47:07.279Z,3.20
2019-03-20T20:50:14.950Z,3.20
2019-03-20T20:53:22.617Z,3.20
2019-03-20T20:56:30.163Z,3.20
2019-03-20T20:59:37.755Z,3.20
2019-03-20T21:02:45.382Z,3.20
2019-03-20T21:05:52.924Z,3.20
2019-03-20T21:09:00.389Z,3.30
2019-03-20T21:12:08.365Z,3.30
2019-03-20T21:15:37.258Z,3.40
2019-03-20T21:19:20.711Z,3.40
2019-03-20T21:23:04.768Z,3.40
2019-03-20T21:26:13.495Z,3.50
2019-03-20T21:29:56.258Z,3.50
2019-03-20T21:33:05.611Z,3.40
2019-03-20T21:37:21.429Z,3.40
2019-03-20T21:40:30.189Z,3.30
2019-03-20T21:44:30.311Z,3.20
2019-03-20T21:47:36.715Z,3.20
2019-03-20T21:51:10.872Z,3.10
2019-03-20T21:55:02.272Z,3.00
2019-03-20T21:58:16.412Z,3.00
2019-03-20T22:02:06.230Z,2.90
2019-03-20T22:05:23.283Z,2.80
2019-03-20T22:08:30.506Z,2.70
2019-03-20T22:12:17.226Z,2.70
2019-03-20T22:15:53.670Z,2.70
2019-03-20T22:19:45.064Z,2.70
2019-03-20T22:23:34.658Z,2.60
2019-03-20T22:27:17.689Z,2.60
2019-03-20T22:30:26.272Z,2.60
2019-03-20T22:34:09.575Z,2.60
2019-03-20T22:37:18.590Z,2.70
2019-03-20T22:41:01.786Z,2.70
2019-03-20T22:44:10.484Z,2.80
2019-03-20T22:47:54.106Z,2.80
2019-03-20T22:51:39.694Z,2.90
2019-03-20T22:55:26.680Z,2.90
2019-03-20T22:58:48.285Z,2.90
2019-03-20T23:02:27.181Z,2.90
2019-03-20T23:05:35.813Z,2.90
2019-03-20T23:08:44.450Z,2.80
2019-03-20T23:11:53.196Z,2.80
2019-03-20T23:15:01.836Z,2.80
2019-03-20T23:18:11.739Z,2.80
2019-03-20T23:21:20.298Z,2.80
2019-03-20T23:24:28.840Z,2.90
2019-03-20T23:27:37.646Z,2.90
2019-03-20T23:30:46.608Z,2.90
2019-03-20T23:33:55.199Z,2.90
2019-03-20T23:37:05.081Z,2.90
2019-03-20T23:40:15.109Z,2.90
2019-03-20T23:43:24.988Z,2.90
2019-03-20T23:46:33.806Z,2.80
2019-03-20T23:49:42.864Z,2.70
2019-03-20T23:52:51.452Z,2.70
2019-03-20T23:56:00.188Z,2.60
2019-03-20T23:59:09.194Z,2.50
